Time;durP1;ratioP1;P1;durP2;ratioP2;P2;SDS_P1;SDS_P2;PMS_P1;PMS_P2;Temp;Humidity;BMP_temperature;BMP_pressure;BME280_temperature;BME280_humidity;BME280_pressure;Samples;Min_cycle;Max_cycle;Signal;HPM_P1;HPM_P2
2023/09/14 00:00:04;;;;;;;9.87;1.80;;;;;;;10.58;100.00;101564.56;6029890;28;20041;-64
2023/09/14 00:03:00;;;;;;;10.90;2.63;;;;;;;10.69;100.00;101577.78;6024278;28;20031;-64
2023/09/14 00:05:55;;;;;;;4.22;1.20;;;;;;;11.03;100.00;101577.69;6029076;28;20491;-64
2023/09/14 00:08:51;;;;;;;6.60;2.17;;;;;;;10.88;100.00;101570.97;6032082;28;20046;-64
2023/09/14 00:11:46;;;;;;;7.17;1.63;;;;;;;10.99;100.00;101590.34;6029171;28;20030;-64
2023/09/14 00:14:41;;;;;;;10.03;1.83;;;;;;;10.95;100.00;101593.41;6020137;28;20042;-64
2023/09/14 00:17:36;;;;;;;6.33;2.27;;;;;;;11.21;100.00;101590.25;6028801;28;20034;-64
2023/09/14 00:20:32;;;;;;;12.10;1.90;;;;;;;11.19;100.00;101586.03;6029100;28;20038;-64
2023/09/14 00:23:27;;;;;;;4.77;1.40;;;;;;;10.80;100.00;101586.69;6028744;28;20457;-64
2023/09/14 00:26:22;;;;;;;5.53;1.50;;;;;;;11.15;100.00;101596.06;6028419;28;20053;-64
2023/09/14 00:29:18;;;;;;;6.20;1.47;;;;;;;10.87;100.00;101582.56;6028972;28;20034;-64
2023/09/14 00:32:13;;;;;;;6.67;1.50;;;;;;;10.63;100.00;101566.84;6029419;28;20031;-64
2023/09/14 00:35:09;;;;;;;4.33;1.40;;;;;;;10.55;100.00;101578.06;6028548;28;20038;-64
2023/09/14 00:38:05;;;;;;;6.45;1.30;;;;;;;10.20;100.00;101590.66;6024313;28;20026;-64
2023/09/14 00:41:00;;;;;;;7.17;1.50;;;;;;;10.48;100.00;101570.75;6028219;28;20049;-64
2023/09/14 00:43:55;;;;;;;4.80;1.60;;;;;;;10.60;100.00;101573.22;6027724;28;20041;-64
2023/09/14 00:46:51;;;;;;;4.70;1.33;;;;;;;10.70;100.00;101568.88;6028240;28;20265;-64
2023/09/14 00:49:46;;;;;;;7.27;1.43;;;;;;;10.56;100.00;101576.28;6026244;28;20294;-64
2023/09/14 00:52:44;;;;;;;4.93;1.30;;;;;;;10.27;100.00;101585.75;6028007;28;20031;-64
2023/09/14 00:55:40;;;;;;;8.60;1.27;;;;;;;10.41;100.00;101572.22;6026814;28;20041;-64
2023/09/14 00:58:35;;;;;;;7.80;1.88;;;;;;;10.73;100.00;101583.69;6027436;28;20597;-64
2023/09/14 01:01:32;;;;;;;4.30;1.50;;;;;;;10.90;100.00;101590.28;6028332;28;20105;-64
2023/09/14 01:04:29;;;;;;;7.88;1.60;;;;;;;10.49;100.00;101588.34;6026412;28;20049;-64
2023/09/14 01:07:24;;;;;;;9.80;1.92;;;;;;;10.14;100.00;101585.84;6027748;28;20038;-64
2023/09/14 01:10:20;;;;;;;7.50;2.20;;;;;;;10.27;100.00;101586.59;6030741;28;20675;-64
2023/09/14 01:13:25;;;;;;;7.40;1.43;;;;;;;10.52;100.00;101578.31;6028328;28;20413;-64
2023/09/14 01:16:27;;;;;;;6.97;1.38;;;;;;;10.63;100.00;101594.22;6023137;28;20265;-65
2023/09/14 01:19:42;;;;;;;4.10;1.50;;;;;;;10.53;100.00;101577.38;6026235;28;20113;-64
2023/09/14 01:22:56;;;;;;;5.57;1.45;;;;;;;10.20;100.00;101606.56;6027714;28;20041;-65
2023/09/14 01:25:52;;;;;;;7.03;2.20;;;;;;;10.37;100.00;101605.25;6027647;28;20057;-64
2023/09/14 01:28:48;;;;;;;5.43;1.60;;;;;;;10.43;100.00;101592.34;6026330;28;20109;-64
2023/09/14 01:31:44;;;;;;;6.40;1.40;;;;;;;10.29;100.00;101589.94;6027517;28;20389;-65
2023/09/14 01:34:39;;;;;;;4.53;1.30;;;;;;;10.35;100.00;101610.69;6026406;28;20034;-65
2023/09/14 01:37:34;;;;;;;4.20;1.10;;;;;;;10.18;100.00;101607.66;6019488;28;20633;-65
2023/09/14 01:40:31;;;;;;;3.28;1.60;;;;;;;10.27;100.00;101591.88;6021249;28;20030;-65
2023/09/14 01:43:26;;;;;;;5.25;1.35;;;;;;;10.46;100.00;101605.31;6022247;28;20041;-65
2023/09/14 01:46:22;;;;;;;7.60;1.98;;;;;;;10.50;100.00;101614.72;6027081;28;20035;-65
2023/09/14 01:49:17;;;;;;;4.65;1.52;;;;;;;10.55;100.00;101579.88;6027713;28;20123;-65
2023/09/14 01:52:13;;;;;;;7.20;1.90;;;;;;;10.65;100.00;101602.88;6027326;28;20062;-65
2023/09/14 01:55:08;;;;;;;5.23;1.40;;;;;;;10.36;100.00;101607.03;6026829;28;20108;-65
2023/09/14 01:58:04;;;;;;;8.55;1.50;;;;;;;10.00;100.00;101594.03;6022822;28;20281;-65
2023/09/14 02:00:59;;;;;;;6.30;2.00;;;;;;;10.06;100.00;101597.03;6027503;28;20057;-65
2023/09/14 02:03:54;;;;;;;6.15;1.50;;;;;;;10.32;100.00;101605.63;6026961;28;20145;-66
2023/09/14 02:06:50;;;;;;;8.67;1.80;;;;;;;10.49;100.00;101581.22;6026885;28;20073;-65
2023/09/14 02:09:45;;;;;;;7.70;1.43;;;;;;;10.43;100.00;101607.41;6030406;28;20301;-65
2023/09/14 02:12:40;;;;;;;5.77;1.80;;;;;;;10.34;100.00;101608.97;6027002;28;20113;-65
2023/09/14 02:15:36;;;;;;;6.63;1.60;;;;;;;10.02;100.00;101600.06;6020730;28;20018;-65
2023/09/14 02:18:31;;;;;;;6.00;1.70;;;;;;;10.43;100.00;101604.75;6026513;28;20050;-65
2023/09/14 02:21:26;;;;;;;4.27;1.60;;;;;;;10.43;100.00;101600.28;6026478;28;20666;-64
2023/09/14 02:24:22;;;;;;;10.43;1.90;;;;;;;10.47;100.00;101630.03;6025947;28;20277;-65
2023/09/14 02:27:17;;;;;;;6.07;1.57;;;;;;;10.20;100.00;101624.28;6026135;28;20046;-65
2023/09/14 02:30:12;;;;;;;7.97;1.70;;;;;;;9.98;100.00;101606.53;6025395;28;20038;-65
2023/09/14 02:33:08;;;;;;;7.63;1.63;;;;;;;10.10;100.00;101622.34;6026675;28;20053;-65
2023/09/14 02:36:03;;;;;;;5.97;1.42;;;;;;;10.30;100.00;101620.78;6025800;28;20109;-64
2023/09/14 02:38:59;;;;;;;5.60;1.70;;;;;;;10.24;100.00;101608.03;6032438;28;20062;-64
2023/09/14 02:41:54;;;;;;;7.20;1.53;;;;;;;10.02;100.00;101608.00;6015209;28;20029;-64
2023/09/14 02:44:49;;;;;;;8.30;1.90;;;;;;;9.81;100.00;101607.03;6025911;28;20040;-65
2023/09/14 02:47:44;;;;;;;4.87;1.50;;;;;;;9.67;100.00;101613.41;6026230;28;20026;-64
2023/09/14 02:50:40;;;;;;;4.50;1.37;;;;;;;9.49;100.00;101612.13;6026011;28;20053;-64
2023/09/14 02:53:35;;;;;;;7.70;1.77;;;;;;;9.57;100.00;101625.63;6025546;28;20034;-64
2023/09/14 02:56:30;;;;;;;6.63;1.67;;;;;;;9.80;100.00;101619.44;6025645;28;20049;-64
2023/09/14 02:59:26;;;;;;;7.93;1.65;;;;;;;10.03;100.00;101615.81;6026260;28;20022;-64
2023/09/14 03:02:24;;;;;;;5.83;1.73;;;;;;;9.85;100.00;101617.25;6026240;28;20045;-65
2023/09/14 03:05:19;;;;;;;6.53;1.52;;;;;;;9.66;100.00;101616.16;6023985;28;20030;-65
2023/09/14 03:08:15;;;;;;;7.30;1.57;;;;;;;9.63;100.00;101613.72;6025852;28;20381;-64
2023/09/14 03:11:10;;;;;;;5.67;1.50;;;;;;;9.30;100.00;101606.56;6025620;28;20030;-64
2023/09/14 03:14:05;;;;;;;5.03;1.13;;;;;;;8.88;100.00;101603.53;6025366;28;20034;-64
2023/09/14 03:17:01;;;;;;;6.47;1.77;;;;;;;8.60;100.00;101621.50;6026011;28;20018;-64
2023/09/14 03:19:56;;;;;;;5.18;1.65;;;;;;;8.70;100.00;101614.59;6026172;28;20042;-64
2023/09/14 03:22:51;;;;;;;6.23;1.67;;;;;;;9.34;100.00;101615.97;6019706;28;20026;-64
2023/09/14 03:25:48;;;;;;;6.23;2.13;;;;;;;9.79;100.00;101622.19;6024824;28;20038;-64
2023/09/14 03:28:44;;;;;;;8.13;2.50;;;;;;;9.68;100.00;101620.38;6023814;28;20393;-64
2023/09/14 03:31:40;;;;;;;5.03;1.77;;;;;;;9.50;100.00;101635.88;6026929;28;20025;-64
2023/09/14 03:34:35;;;;;;;6.17;1.50;;;;;;;9.22;100.00;101628.31;6028968;28;20026;-64
2023/09/14 03:37:30;;;;;;;7.63;2.10;;;;;;;9.11;100.00;101630.91;6030813;28;20424;-64
2023/09/14 03:40:26;;;;;;;6.00;1.67;;;;;;;8.95;100.00;101644.44;6027238;28;20038;-63
2023/09/14 03:43:21;;;;;;;8.23;1.73;;;;;;;8.64;100.00;101641.50;6030582;28;20038;-64
2023/09/14 03:46:16;;;;;;;5.07;1.67;;;;;;;8.41;100.00;101623.78;6024600;28;20764;-64
2023/09/14 03:49:12;;;;;;;3.75;1.38;;;;;;;8.64;100.00;101654.72;6030157;28;20281;-63
2023/09/14 03:52:07;;;;;;;6.90;1.57;;;;;;;8.69;100.00;101639.38;6030240;28;20454;-64
2023/09/14 03:55:04;;;;;;;5.60;1.40;;;;;;;9.19;100.00;101649.69;6024802;28;20111;-64
2023/09/14 03:57:59;;;;;;;4.47;1.80;;;;;;;8.59;100.00;101639.16;6028736;28;20022;-64
2023/09/14 04:00:55;;;;;;;4.27;1.70;;;;;;;9.01;100.00;101640.50;6023376;28;20489;-63
2023/09/14 04:03:50;;;;;;;6.95;2.08;;;;;;;8.98;100.00;101653.94;6028412;28;20030;-64
2023/09/14 04:06:47;;;;;;;6.40;2.00;;;;;;;8.93;100.00;101661.38;6029650;28;20054;-64
2023/09/14 04:09:43;;;;;;;3.53;1.40;;;;;;;8.68;100.00;101648.25;6033960;28;20143;-64
2023/09/14 04:12:40;;;;;;;5.53;1.75;;;;;;;8.95;100.00;101644.44;6026299;28;20068;-64
2023/09/14 04:15:35;;;;;;;7.15;1.77;;;;;;;9.01;100.00;101664.31;6025170;28;20477;-64
2023/09/14 04:18:35;;;;;;;6.63;2.93;;;;;;;9.18;100.00;101673.66;6023320;28;20026;-63
2023/09/14 04:21:30;;;;;;;6.47;1.88;;;;;;;9.30;100.00;101668.28;6024126;28;20022;-64
2023/09/14 04:24:25;;;;;;;10.97;2.33;;;;;;;9.45;100.00;101675.09;6028536;28;20613;-63
2023/09/14 04:27:21;;;;;;;9.55;2.15;;;;;;;9.71;100.00;101677.56;6029401;28;20284;-64
2023/09/14 04:30:16;;;;;;;6.83;2.00;;;;;;;9.28;100.00;101669.34;6024053;28;20101;-64
2023/09/14 04:33:12;;;;;;;8.40;1.93;;;;;;;9.01;100.00;101680.19;6029439;28;20078;-63
2023/09/14 04:36:07;;;;;;;5.57;1.90;;;;;;;8.70;100.00;101688.63;6028323;28;20285;-63
2023/09/14 04:39:03;;;;;;;11.00;2.33;;;;;;;9.00;100.00;101678.47;6029108;28;20053;-64
2023/09/14 04:41:59;;;;;;;5.70;1.88;;;;;;;9.36;100.00;101685.50;6028497;28;20105;-64
2023/09/14 04:44:54;;;;;;;8.93;2.90;;;;;;;9.56;100.00;101666.34;6026651;28;20037;-64
2023/09/14 04:47:49;;;;;;;4.70;2.13;;;;;;;9.43;100.00;101686.75;6014964;28;20513;-63
2023/09/14 04:50:45;;;;;;;6.07;3.30;;;;;;;9.27;100.00;101684.38;6018119;28;20296;-63
2023/09/14 04:53:40;;;;;;;12.83;2.50;;;;;;;9.28;100.00;101679.94;6028006;28;20469;-63
2023/09/14 04:56:35;;;;;;;8.68;2.17;;;;;;;9.18;100.00;101679.78;6027735;28;20129;-64
2023/09/14 04:59:31;;;;;;;8.87;2.33;;;;;;;8.63;100.00;101671.53;6028307;28;20362;-63
2023/09/14 05:02:27;;;;;;;5.60;2.20;;;;;;;8.42;100.00;101688.91;6028796;28;20034;-63
2023/09/14 05:05:22;;;;;;;7.80;2.20;;;;;;;8.45;100.00;101670.19;6027197;28;20123;-63
2023/09/14 05:08:18;;;;;;;5.70;2.47;;;;;;;8.64;100.00;101689.91;6023386;28;20035;-64
2023/09/14 05:11:14;;;;;;;7.80;2.17;;;;;;;8.78;100.00;101687.13;6032985;28;20121;-63
2023/09/14 05:14:09;;;;;;;4.45;2.08;;;;;;;8.53;100.00;101675.78;6035870;28;20064;-63
2023/09/14 05:17:05;;;;;;;7.03;1.83;;;;;;;9.08;100.00;101684.03;6023272;28;20034;-63
2023/09/14 05:20:00;;;;;;;6.93;2.10;;;;;;;8.64;100.00;101689.09;6028143;28;20034;-63
2023/09/14 05:22:55;;;;;;;8.40;2.27;;;;;;;9.09;100.00;101691.03;6019732;28;20053;-63
2023/09/14 05:25:51;;;;;;;4.27;1.63;;;;;;;8.74;100.00;101695.41;6026982;28;20042;-63
2023/09/14 05:28:46;;;;;;;8.13;2.20;;;;;;;8.67;100.00;101688.88;6024401;28;20030;-63
2023/09/14 05:31:41;;;;;;;6.63;1.80;;;;;;;8.76;100.00;101682.91;6018498;28;20031;-63
2023/09/14 05:34:37;;;;;;;9.57;2.13;;;;;;;9.27;100.00;101699.41;6013489;28;20039;-63
2023/09/14 05:37:35;;;;;;;12.23;2.65;;;;;;;9.02;100.00;101683.66;6026662;28;20026;-63
2023/09/14 05:40:32;;;;;;;6.20;2.13;;;;;;;9.23;100.00;101696.16;6027445;28;20034;-63
2023/09/14 05:43:27;;;;;;;10.57;2.70;;;;;;;9.35;100.00;101707.63;6026848;28;20045;-64
2023/09/14 05:46:22;;;;;;;9.13;2.63;;;;;;;9.54;100.00;101703.50;6020778;28;20038;-64
2023/09/14 05:49:18;;;;;;;5.50;1.93;;;;;;;9.80;100.00;101698.06;6026887;28;20088;-63
2023/09/14 05:52:13;;;;;;;6.85;2.35;;;;;;;9.75;100.00;101701.06;6027515;28;20050;-64
2023/09/14 05:55:09;;;;;;;7.13;1.73;;;;;;;9.91;100.00;101708.66;6025919;28;20038;-63
2023/09/14 05:58:04;;;;;;;6.10;2.10;;;;;;;9.94;100.00;101716.41;6026362;28;20033;-63
2023/09/14 06:01:00;;;;;;;8.07;1.80;;;;;;;10.06;100.00;101710.13;6027471;28;20084;-64
2023/09/14 06:03:56;;;;;;;5.85;1.50;;;;;;;10.20;100.00;101703.81;6026166;28;20026;-64
2023/09/14 06:06:51;;;;;;;4.17;1.70;;;;;;;10.59;100.00;101728.06;6027260;28;20041;-64
2023/09/14 06:09:46;;;;;;;6.83;2.33;;;;;;;10.67;100.00;101722.97;6026274;28;20297;-64
2023/09/14 06:12:42;;;;;;;8.10;2.40;;;;;;;10.65;100.00;101703.66;6026429;28;20085;-64
2023/09/14 06:15:37;;;;;;;6.03;2.17;;;;;;;10.89;100.00;101703.53;6023028;28;20281;-64
2023/09/14 06:18:32;;;;;;;6.90;2.35;;;;;;;11.29;100.00;101720.56;6025060;28;20146;-64
2023/09/14 06:21:28;;;;;;;5.43;2.20;;;;;;;11.41;100.00;101724.03;6029112;28;20409;-65
2023/09/14 06:24:23;;;;;;;6.13;2.00;;;;;;;11.48;100.00;101719.03;6015203;28;20045;-64
2023/09/14 06:27:18;;;;;;;7.07;1.97;;;;;;;11.59;100.00;101733.13;6022163;28;20050;-64
2023/09/14 06:30:14;;;;;;;10.70;2.63;;;;;;;11.34;100.00;101733.44;6016671;28;20044;-64
2023/09/14 06:33:09;;;;;;;5.30;1.80;;;;;;;11.55;100.00;101730.84;6014727;28;20088;-65
2023/09/14 06:36:04;;;;;;;10.50;2.63;;;;;;;11.51;100.00;101735.56;6023273;28;20269;-64
2023/09/14 06:39:00;;;;;;;6.20;1.80;;;;;;;11.70;100.00;101740.22;6023119;28;20508;-65
2023/09/14 06:41:55;;;;;;;5.13;1.53;;;;;;;11.93;100.00;101732.00;6015470;28;20033;-65
2023/09/14 06:44:51;;;;;;;12.25;2.30;;;;;;;12.40;100.00;101743.06;6015483;28;20133;-64
2023/09/14 06:47:47;;;;;;;6.17;2.37;;;;;;;12.19;100.00;101737.78;6016331;28;20093;-65
2023/09/14 06:50:43;;;;;;;5.10;1.80;;;;;;;12.47;100.00;101757.53;6019095;28;20289;-64
2023/09/14 06:53:38;;;;;;;10.60;2.13;;;;;;;12.65;100.00;101739.09;6020364;28;20061;-64
2023/09/14 06:56:34;;;;;;;6.47;1.57;;;;;;;12.67;100.00;101748.63;6018455;28;20033;-64
2023/09/14 06:59:30;;;;;;;4.53;1.42;;;;;;;12.98;100.00;101744.97;6018552;28;20061;-64
2023/09/14 07:02:26;;;;;;;6.57;1.70;;;;;;;12.98;100.00;101757.44;6018145;28;20470;-64
2023/09/14 07:05:21;;;;;;;5.10;1.30;;;;;;;13.12;100.00;101754.44;6015857;28;20046;-63
2023/09/14 07:08:16;;;;;;;8.23;1.70;;;;;;;13.18;100.00;101750.38;6015414;28;20042;-64
2023/09/14 07:11:12;;;;;;;6.33;1.60;;;;;;;13.19;100.00;101750.22;6023324;28;20065;-63
2023/09/14 07:14:08;;;;;;;4.25;1.40;;;;;;;13.61;100.00;101753.50;6027653;28;20124;-64
2023/09/14 07:17:04;;;;;;;6.13;2.00;;;;;;;13.47;100.00;101737.94;6018961;28;20030;-63
2023/09/14 07:19:59;;;;;;;7.22;1.60;;;;;;;13.72;100.00;101758.69;6034711;28;20516;-63
2023/09/14 07:22:54;;;;;;;4.77;1.27;;;;;;;13.62;100.00;101740.03;6015405;28;20039;-64
2023/09/14 07:25:49;;;;;;;6.93;1.40;;;;;;;13.85;100.00;101751.25;6015327;28;20041;-63
2023/09/14 07:28:45;;;;;;;6.03;1.43;;;;;;;13.75;100.00;101745.09;6019091;28;20034;-64
2023/09/14 07:31:41;;;;;;;7.72;1.75;;;;;;;13.88;100.00;101756.31;6020855;28;20068;-64
2023/09/14 07:34:37;;;;;;;6.55;1.45;;;;;;;14.14;100.00;101754.72;6025027;28;20038;-64
2023/09/14 07:37:32;;;;;;;8.13;1.45;;;;;;;14.41;100.00;101763.81;6015304;28;20037;-64
2023/09/14 07:40:28;;;;;;;6.18;2.00;;;;;;;14.49;100.00;101748.75;6026926;28;20247;-64
2023/09/14 07:43:24;;;;;;;6.13;1.60;;;;;;;14.76;100.00;101743.44;6007893;28;20101;-64
2023/09/14 07:46:19;;;;;;;6.82;1.60;;;;;;;14.95;100.00;101761.19;6013748;28;20126;-64
2023/09/14 07:49:15;;;;;;;8.03;1.57;;;;;;;14.87;100.00;101767.28;6016671;28;20060;-64
2023/09/14 07:52:10;;;;;;;6.87;1.60;;;;;;;14.97;100.00;101758.38;6018306;28;20034;-64
2023/09/14 07:55:06;;;;;;;5.68;1.33;;;;;;;15.01;100.00;101757.09;6008920;28;20022;-64
2023/09/14 07:58:02;;;;;;;6.68;1.48;;;;;;;15.06;100.00;101766.34;6024296;28;20034;-64
2023/09/14 08:00:57;;;;;;;4.40;1.35;;;;;;;15.08;100.00;101764.38;6007344;28;20035;-64
2023/09/14 08:03:53;;;;;;;7.88;1.40;;;;;;;15.19;100.00;101766.00;6018513;28;20520;-64
2023/09/14 08:06:48;;;;;;;6.73;1.50;;;;;;;15.30;100.00;101779.97;6019217;28;20593;-65
2023/09/14 08:09:46;;;;;;;6.73;1.40;;;;;;;15.55;100.00;101777.56;6020274;28;20278;-65
2023/09/14 08:12:42;;;;;;;3.47;1.08;;;;;;;15.57;100.00;101792.50;6019796;28;20043;-64
2023/09/14 08:15:39;;;;;;;4.63;1.17;;;;;;;15.29;100.00;101793.50;6015626;28;20043;-64
2023/09/14 08:18:35;;;;;;;4.13;1.20;;;;;;;15.44;100.00;101784.81;6019656;28;20088;-65
2023/09/14 08:21:30;;;;;;;5.70;1.30;;;;;;;15.55;100.00;101790.94;6023088;28;20075;-65
2023/09/14 08:24:25;;;;;;;3.30;0.90;;;;;;;15.70;100.00;101800.16;6019841;28;20035;-65
2023/09/14 08:27:21;;;;;;;6.73;1.50;;;;;;;15.96;100.00;101795.69;6017620;28;20403;-65
2023/09/14 08:30:17;;;;;;;8.98;1.35;;;;;;;15.99;100.00;101803.41;6017597;28;20493;-65
2023/09/14 08:33:12;;;;;;;5.97;1.30;;;;;;;16.05;98.26;101816.19;6028587;28;20039;-65
2023/09/14 08:36:07;;;;;;;6.30;1.23;;;;;;;16.11;97.48;101804.03;6018194;28;20810;-65
2023/09/14 08:39:04;;;;;;;4.47;1.27;;;;;;;16.25;96.87;101816.84;6026092;28;20081;-65
2023/09/14 08:42:00;;;;;;;8.48;1.30;;;;;;;16.44;94.05;101825.50;6025612;28;20037;-65
2023/09/14 08:44:55;;;;;;;5.57;1.07;;;;;;;16.87;94.53;101823.81;6018935;28;20474;-65
2023/09/14 08:47:51;;;;;;;3.90;1.00;;;;;;;16.73;88.81;101811.00;6027383;28;20281;-66
2023/09/14 08:50:47;;;;;;;5.63;1.00;;;;;;;16.61;88.06;101807.75;6024608;28;20369;-65
2023/09/14 08:53:43;;;;;;;4.65;1.05;;;;;;;16.75;89.83;101803.63;6021217;28;20181;-65
2023/09/14 08:56:41;;;;;;;3.85;1.15;;;;;;;16.94;86.49;101814.13;6013388;28;20066;-65
2023/09/14 08:59:37;;;;;;;6.22;0.73;;;;;;;17.19;84.49;101826.63;6016052;28;20771;-66
2023/09/14 09:02:33;;;;;;;6.47;1.00;;;;;;;17.18;84.80;101811.53;6020255;28;20034;-66
2023/09/14 09:05:28;;;;;;;1.77;0.70;;;;;;;17.29;79.75;101819.28;6012616;28;20496;-66
2023/09/14 09:08:26;;;;;;;2.90;0.90;;;;;;;17.27;81.11;101819.47;6026719;28;20038;-65
2023/09/14 09:11:22;;;;;;;4.30;1.10;;;;;;;17.23;76.26;101817.25;6023581;28;20408;-65
2023/09/14 09:14:17;;;;;;;3.33;0.70;;;;;;;17.46;80.48;101802.25;6024725;28;20050;-66
2023/09/14 09:17:12;;;;;;;5.53;0.90;;;;;;;17.93;78.75;101807.06;6019109;28;20378;-65
2023/09/14 09:20:19;;;;;;;3.20;0.93;;;;;;;17.83;76.02;101824.16;6026602;28;20277;-65
2023/09/14 09:23:17;;;;;;;5.18;0.90;;;;;;;18.06;74.01;101810.06;6017207;28;20110;-65
2023/09/14 09:26:13;;;;;;;5.38;1.10;;;;;;;18.20;71.30;101815.63;6018676;28;20046;-66
2023/09/14 09:29:15;;;;;;;5.63;0.90;;;;;;;18.23;68.66;101817.97;6015142;28;20474;-65
2023/09/14 09:32:20;;;;;;;3.38;0.70;;;;;;;18.33;71.92;101805.19;6025039;28;20084;-65
2023/09/14 09:35:20;;;;;;;4.43;0.70;;;;;;;17.99;70.07;101820.63;6011954;28;20370;-66
2023/09/14 09:38:16;;;;;;;;;;;;;;;17.72;68.48;101816.41;6007600;28;20498;-65
2023/09/14 09:41:11;;;;;;;4.60;0.70;;;;;;;17.87;68.17;101818.44;6012944;28;20060;-65
2023/09/14 09:44:09;;;;;;;5.15;1.02;;;;;;;17.96;68.90;101817.47;6015599;28;20092;-66
2023/09/14 09:47:04;;;;;;;3.38;0.70;;;;;;;17.71;70.16;101809.38;6020374;28;20445;-65
2023/09/14 09:50:00;;;;;;;4.20;0.80;;;;;;;16.94;71.42;101809.59;6016590;28;20035;-65
2023/09/14 09:52:55;;;;;;;7.32;0.82;;;;;;;17.13;69.80;101819.22;6016526;28;20038;-66
2023/09/14 09:55:51;;;;;;;3.60;0.70;;;;;;;17.90;68.59;101818.97;6020233;28;20034;-66
2023/09/14 09:58:47;;;;;;;2.92;0.65;;;;;;;17.90;65.71;101807.38;6025556;28;20026;-66
2023/09/14 10:01:47;;;;;;;1.65;0.50;;;;;;;17.68;66.23;101793.63;6013898;28;20042;-66
2023/09/14 10:04:52;;;;;;;5.25;0.98;;;;;;;18.02;69.76;101816.81;6016948;28;20039;-66
2023/09/14 10:07:47;;;;;;;6.78;0.90;;;;;;;18.10;67.03;101798.00;6020427;28;20038;-65
2023/09/14 10:10:50;;;;;;;2.60;0.63;;;;;;;18.03;64.43;101807.72;6021170;28;20023;-65
2023/09/14 10:13:46;;;;;;;1.63;0.70;;;;;;;17.51;68.28;101807.97;6022450;28;20358;-65
2023/09/14 10:16:42;;;;;;;4.43;0.80;;;;;;;17.40;68.17;101808.25;6020465;28;20487;-66
2023/09/14 10:19:39;;;;;;;2.58;0.52;;;;;;;17.41;67.57;101807.28;6018699;28;20054;-65
2023/09/14 10:22:36;;;;;;;2.78;0.80;;;;;;;18.09;66.75;101799.00;6018127;28;20039;-65
2023/09/14 10:25:32;;;;;;;1.77;0.57;;;;;;;18.09;63.51;101790.94;6022965;28;20046;-66
2023/09/14 10:28:27;;;;;;;4.80;1.23;;;;;;;17.79;61.69;101801.34;6021943;28;20508;-66
2023/09/14 10:31:23;;;;;;;3.42;0.80;;;;;;;17.50;65.68;101792.84;6016164;28;20069;-66
2023/09/14 10:34:19;;;;;;;3.50;0.73;;;;;;;16.98;66.90;101796.72;6019106;28;20037;-66
2023/09/14 10:37:16;;;;;;;1.75;0.50;;;;;;;17.43;64.55;101799.91;6023465;28;20046;-66
2023/09/14 10:40:13;;;;;;;6.65;0.75;;;;;;;18.30;63.24;101796.63;6037848;28;20060;-66
2023/09/14 10:43:09;;;;;;;3.65;0.70;;;;;;;19.11;61.75;101791.88;6015837;28;20193;-65
2023/09/14 10:46:06;;;;;;;2.45;0.75;;;;;;;19.73;59.59;101781.97;6021367;28;20469;-66
2023/09/14 10:49:01;;;;;;;4.10;0.88;;;;;;;19.30;57.93;101787.94;6020443;28;20134;-65
2023/09/14 10:51:57;;;;;;;5.55;1.08;;;;;;;18.66;58.97;101789.03;6015656;28;20030;-66
2023/09/14 10:54:52;;;;;;;3.10;0.60;;;;;;;18.12;60.23;101790.63;6023318;28;20600;-66
2023/09/14 10:57:50;;;;;;;6.20;0.80;;;;;;;17.85;63.79;101760.41;6024579;28;21421;-66
2023/09/14 11:00:55;;;;;;;3.80;1.35;;;;;;;17.87;62.15;101775.50;6018788;28;20030;-66
2023/09/14 11:04:06;;;;;;;5.05;0.85;;;;;;;17.76;65.48;101766.78;6022357;28;20469;-66
2023/09/14 11:07:04;;;;;;;8.52;1.23;;;;;;;17.61;64.61;101722.00;6018490;28;20026;-66
2023/09/14 11:10:03;;;;;;;4.45;0.80;;;;;;;17.89;64.74;101749.34;6026563;28;20034;-66
2023/09/14 11:13:18;;;;;;;7.45;1.27;;;;;;;18.53;62.13;101760.03;6024467;28;20063;-65
2023/09/14 11:16:18;;;;;;;2.95;0.80;;;;;;;19.26;56.49;101757.03;6023384;28;20041;-66
2023/09/14 11:19:37;;;;;;;5.78;0.95;;;;;;;19.18;54.78;101755.22;6018704;28;20036;-66
2023/09/14 11:22:32;;;;;;;5.20;0.93;;;;;;;19.98;53.75;101761.06;6018159;28;20044;-66
2023/09/14 11:25:36;;;;;;;2.97;0.60;;;;;;;20.13;54.43;101748.50;6017151;28;20462;-64
2023/09/14 11:28:32;;;;;;;7.32;1.00;;;;;;;19.18;53.39;101762.47;6016917;28;20262;-64
2023/09/14 11:31:29;;;;;;;2.17;0.90;;;;;;;18.54;56.25;101753.63;6020558;28;20038;-66
2023/09/14 11:34:24;;;;;;;2.70;0.65;;;;;;;18.05;59.11;101749.31;6017299;28;20528;-66
2023/09/14 11:37:20;;;;;;;1.77;0.52;;;;;;;17.87;60.57;101762.09;6021247;28;20046;-66
2023/09/14 11:40:16;;;;;;;2.45;1.00;;;;;;;17.45;65.00;101757.66;6018086;28;20084;-66
2023/09/14 11:43:21;;;;;;;3.08;1.10;;;;;;;17.31;62.67;101762.84;6014070;28;20113;-66
2023/09/14 11:46:16;;;;;;;3.72;0.80;;;;;;;17.22;63.81;101764.66;6019920;28;20030;-66
2023/09/14 11:49:11;;;;;;;2.25;0.95;;;;;;;17.29;62.71;101757.63;6022970;28;20062;-66
2023/09/14 11:52:10;;;;;;;1.83;0.57;;;;;;;17.48;60.17;101756.47;6019909;28;20320;-66
2023/09/14 11:55:06;;;;;;;3.47;0.98;;;;;;;17.90;59.63;101751.03;6021752;28;20489;-65
2023/09/14 11:58:02;;;;;;;3.25;0.73;;;;;;;17.95;61.86;101746.81;6018678;28;20077;-66
2023/09/14 12:00:57;;;;;;;4.80;0.82;;;;;;;18.21;60.31;101746.63;6020665;28;20088;-66
2023/09/14 12:03:54;;;;;;;5.73;1.03;;;;;;;18.03;58.40;101738.78;6022593;28;20106;-66
2023/09/14 12:06:49;;;;;;;3.28;0.73;;;;;;;18.74;57.58;101741.50;6019552;28;20376;-66
2023/09/14 12:09:44;;;;;;;3.00;0.80;;;;;;;19.13;56.88;101757.63;6028271;28;20510;-66
2023/09/14 12:12:40;;;;;;;3.73;0.73;;;;;;;18.90;55.73;101752.16;6017123;28;20934;-65
2023/09/14 12:15:35;;;;;;;3.60;0.85;;;;;;;18.71;57.64;101749.91;6023362;28;20618;-65
2023/09/14 12:18:40;;;;;;;4.33;1.13;;;;;;;18.82;58.52;101757.59;6021071;28;20088;-66
2023/09/14 12:21:36;;;;;;;2.88;0.90;;;;;;;19.33;56.08;101741.84;6018516;28;20489;-66
2023/09/14 12:24:31;;;;;;;4.07;0.60;;;;;;;19.19;54.83;101742.59;6015669;28;20074;-65
2023/09/14 12:27:28;;;;;;;2.47;0.80;;;;;;;19.19;53.77;101745.28;6023486;28;20760;-66
2023/09/14 12:30:23;;;;;;;6.55;1.33;;;;;;;18.93;54.55;101754.50;6033595;28;20038;-67
2023/09/14 12:33:19;;;;;;;8.52;1.00;;;;;;;18.93;55.72;101757.19;6020062;28;20034;-66
2023/09/14 12:36:16;;;;;;;3.47;0.80;;;;;;;19.54;55.23;101740.22;6019568;28;20041;-66
2023/09/14 12:39:12;;;;;;;5.22;0.80;;;;;;;19.86;54.51;101741.00;6024873;28;20397;-66
2023/09/14 12:42:08;;;;;;;5.03;0.90;;;;;;;20.25;51.05;101740.84;6013442;28;20030;-67
2023/09/14 12:45:11;;;;;;;4.68;1.10;;;;;;;20.63;51.81;101739.72;6016244;28;20602;-66
2023/09/14 12:48:08;;;;;;;5.45;0.80;;;;;;;20.55;54.83;101748.75;6013937;28;20034;-66
2023/09/14 12:51:06;;;;;;;3.20;0.80;;;;;;;21.34;53.42;101742.53;6016786;28;20394;-66
2023/09/14 12:54:02;;;;;;;5.40;0.80;;;;;;;21.12;51.31;101734.56;6025008;28;20042;-67
2023/09/14 12:56:57;;;;;;;3.70;0.82;;;;;;;21.12;49.86;101735.41;6018798;28;20042;-66
2023/09/14 13:00:14;;;;;;;5.13;0.93;;;;;;;21.01;51.01;101735.06;6028875;28;20401;-66
2023/09/14 13:03:10;;;;;;;3.58;0.77;;;;;;;21.23;50.33;101748.41;6027315;28;20041;-66
2023/09/14 13:06:05;;;;;;;2.35;0.60;;;;;;;20.74;50.43;101736.56;6022602;28;20034;-67
2023/09/14 13:09:07;;;;;;;4.50;1.03;;;;;;;20.55;51.22;101746.06;6019636;28;20035;-66
2023/09/14 13:12:03;;;;;;;5.35;0.80;;;;;;;19.90;52.29;101732.38;6022091;28;20023;-66
2023/09/14 13:14:58;;;;;;;2.92;0.90;;;;;;;19.45;53.13;101727.00;6023799;28;20034;-66
2023/09/14 13:17:55;;;;;;;5.37;0.93;;;;;;;18.41;55.12;101729.97;6011597;28;20054;-66
2023/09/14 13:20:51;;;;;;;4.43;0.98;;;;;;;18.59;55.48;101750.44;6020349;28;20032;-66
2023/09/14 13:23:47;;;;;;;7.93;1.05;;;;;;;19.25;55.70;101728.44;6042316;28;20046;-66
2023/09/14 13:26:42;;;;;;;3.92;0.68;;;;;;;19.32;53.37;101738.31;6014553;28;20038;-66
2023/09/14 13:29:37;;;;;;;4.40;0.87;;;;;;;19.57;52.55;101736.31;6020821;28;20042;-66
2023/09/14 13:32:35;;;;;;;5.30;1.30;;;;;;;20.00;52.27;101705.19;6017394;28;20022;-66
2023/09/14 13:35:32;;;;;;;4.22;0.85;;;;;;;20.09;52.66;101706.78;6017070;28;20097;-66